90NY weather

Hopewell Airpark
Canandaigua, New York, United States

Public forecast

Using degrees Fahrenheit for public forecast. Weather courtesy of forecast.io.

METAR (pilot weather report)

Closest report is Penn Yan Airport, 18.9 nm (35.0 km) SSE. Retrieved 2019/05/23 09:53 UTC (19 minutes ago):

KPEO 230953Z AUTO 22005KT 10SM CLR 13/09 A3005 RMK AO2 SLP176 T01280094 $

TAF (pilot weather forecast)

Closest forecast is Greater Rochester International Airport, 22.3 nm (41.4 km) WNW. Retrieved 2019/05/23 06:39 UTC (4 hours ago):

TAF KROC 230535Z 2306/2406 18007KT P6SM FEW250 FM231400 21007KT P6SM BKN120 FM231600 23011G24KT 5SM -TSRA BR BKN050CB FM231800 25020G38KT P6SM -SHRA BKN035 FM232000 26020G30KT P6SM SCT120 FM240300 28010KT P6SM SCT045